메인 페이지
METAR-TAF:

METAR-TAF

공항 :

고바노르 프란시스코 가브리엘리 국제공항

멘도사, 아르헨티나

위도: 32-50S, 경도: 068-47W, 고도: 705m

현재 날씨관측

예보는 43분 전, 12:00시(UTC)에 발표되었습니다.
남서2kt
온도 3°C
습도 81%
기압 1014 hPa
시정 10km 이상
1500m 미만 상공 구름 및 적란운 없음

METAR: SAME 221200Z 23002KT CAVOK 03/M00 Q1014

시각: 09:43 (12:43 UTC)

예보

예보는 1 시간 43분 전, 11:00시(UTC)에 발표되었습니다.
예보 대상 시간: 22일 12시부터 23일 12시까지 (UTC)
여러 방향의 바람 3kt
시정 10km 이상
1500m 미만 상공 구름 및 적란운 없음
확률 40% :
일시적
22일 12시부터 22일 14시까지 (UTC)
kt
시정: 6000m
전환 중
22일 14시부터 22일 16시까지 (UTC)
북동10kt
시정 10km 이상
고도 4000ft 상공 구름 조금
전환 중
23일 00시부터 23일 02시까지 (UTC)
10kt
시정 10km 이상
고도 4000ft 상공 구름 보통

TAF: SAME 221100Z 2212/2312 VRB03KT CAVOK TX18/2220Z TN07/2310Z PROB40 TEMPO 2212/2214 00000KT 6000 FUHZ NSC BECMG 2214/2216 05010KT 9999 FEW040 BECMG 2300/2302 18010KT 9999 SCT040

4,000개 이상의 공항 관측 자료 및 예보 (METAR 및 TAF 보고).

지도상에서 검색 가능한 기상관측소가 노란 점과 빨간 점으로 표시되어 있습니다.

기상관측소 명을 보려면 표시 위로 마우스를 이동하세요.

날씨 관측과 예보를 보려면 클릭하세요.

지도 변경 : 확대하려면 엑스 표시가 있는 녹색 버튼, 축소하려면 빼기 표시가 있는 녹색 버튼, 다음 페이지의 지도를 보려면 녹색 화살표를 클릭하세요.


METAR-TAF: